Time;durP1;ratioP1;P1;durP2;ratioP2;P2;SDS_P1;SDS_P2;PMS_P1;PMS_P2;Temp;Humidity;BMP_temperature;BMP_pressure;BME280_temperature;BME280_humidity;BME280_pressure;Samples;Min_cycle;Max_cycle;Signal;HPM_P1;HPM_P2
2021/10/13 00:01:54;;;;;;;21.08;16.80;;;;;;;;;;4913956;29;20500;-91
2021/10/13 00:04:21;;;;;;;21.77;16.92;;;;;;;;;;4918579;29;20438;-91
2021/10/13 00:06:48;;;;;;;20.60;17.00;;;;;;;;;;4929484;29;20910;-91
2021/10/13 00:09:16;;;;;;;20.25;16.27;;;;;;;;;;4949054;28;20432;-90
2021/10/13 00:11:44;;;;;;;25.07;17.90;;;;;;;;;;4945790;29;20424;-89
2021/10/13 00:14:10;;;;;;;21.80;16.85;;;;;;;;;;4925180;28;20415;-90
2021/10/13 00:16:38;;;;;;;21.93;16.90;;;;;;;;;;4931179;28;20414;-90
2021/10/13 00:19:05;;;;;;;22.67;17.60;;;;;;;;;;4917252;29;20455;-90
2021/10/13 00:21:32;;;;;;;22.90;17.17;;;;;;;;;;4918702;29;20419;-91
2021/10/13 00:23:59;;;;;;;20.95;16.60;;;;;;;;;;4934289;29;20462;-91
2021/10/13 00:26:28;;;;;;;20.45;16.48;;;;;;;;;;4921739;29;20412;-91
2021/10/13 00:28:55;;;;;;;20.67;16.38;;;;;;;;;;4920993;29;20410;-90
2021/10/13 00:31:22;;;;;;;21.98;16.77;;;;;;;;;;4923506;29;20423;-91
2021/10/13 00:33:49;;;;;;;21.58;16.60;;;;;;;;;;4917162;29;20904;-91
2021/10/13 00:36:16;;;;;;;22.63;16.98;;;;;;;;;;4923900;29;20476;-91
2021/10/13 00:38:43;;;;;;;22.17;17.10;;;;;;;;;;4914048;29;20510;-91
2021/10/13 00:41:10;;;;;;;22.20;16.63;;;;;;;;;;4944092;29;20427;-91
2021/10/13 00:43:38;;;;;;;21.55;15.80;;;;;;;;;;4942921;28;20410;-90
2021/10/13 00:46:06;;;;;;;19.20;16.40;;;;;;;;;;4928277;29;20941;-89
2021/10/13 00:48:34;;;;;;;22.20;16.70;;;;;;;;;;4926844;29;20401;-89
2021/10/13 00:51:01;;;;;;;20.77;16.15;;;;;;;;;;4931937;29;20429;-91
2021/10/13 00:53:28;;;;;;;21.65;16.65;;;;;;;;;;4933423;29;20434;-91
2021/10/13 00:55:56;;;;;;;20.20;16.33;;;;;;;;;;4916000;29;20750;-91
2021/10/13 00:58:23;;;;;;;23.42;17.15;;;;;;;;;;4929549;29;20433;-90
2021/10/13 01:00:57;;;;;;;21.33;16.70;;;;;;;;;;4925384;29;20419;-91
2021/10/13 01:03:33;;;;;;;21.25;15.68;;;;;;;;;;4913998;29;20415;-91
2021/10/13 01:06:13;;;;;;;20.98;16.10;;;;;;;;;;4914297;29;20415;-91
2021/10/13 01:08:49;;;;;;;21.15;17.17;;;;;;;;;;4914065;29;20407;-91
2021/10/13 01:11:28;;;;;;;19.80;15.85;;;;;;;;;;4922005;29;20423;-90
2021/10/13 01:14:07;;;;;;;22.67;17.02;;;;;;;;;;4914937;29;20420;-91
2021/10/13 01:16:44;;;;;;;20.58;16.73;;;;;;;;;;4922863;29;20413;-90
2021/10/13 01:19:20;;;;;;;24.33;16.50;;;;;;;;;;4921327;29;20516;-90
2021/10/13 01:22:02;;;;;;;20.15;16.27;;;;;;;;;;4919632;29;20526;-90
2021/10/13 01:24:41;;;;;;;24.33;16.58;;;;;;;;;;4921329;29;20743;-90
2021/10/13 01:27:24;;;;;;;22.10;16.60;;;;;;;;;;4913607;29;20444;-90
2021/10/13 01:29:54;;;;;;;20.02;15.27;;;;;;;;;;4913339;29;20423;-90
2021/10/13 01:32:26;;;;;;;20.52;16.50;;;;;;;;;;4927345;29;20406;-90
2021/10/13 01:34:58;;;;;;;23.27;16.73;;;;;;;;;;4927504;29;20407;-90
2021/10/13 01:37:29;;;;;;;22.13;16.40;;;;;;;;;;4913471;29;20749;-90
2021/10/13 01:39:58;;;;;;;21.30;16.60;;;;;;;;;;4916932;29;20469;-90
2021/10/13 01:42:27;;;;;;;22.73;16.10;;;;;;;;;;4923793;29;20434;-91
2021/10/13 01:44:58;;;;;;;21.40;16.67;;;;;;;;;;4917746;29;20490;-91
2021/10/13 01:47:27;;;;;;;20.65;15.95;;;;;;;;;;4913342;29;20856;-90
2021/10/13 01:49:57;;;;;;;19.30;15.33;;;;;;;;;;4923207;29;20435;-91
2021/10/13 01:52:26;;;;;;;20.50;16.15;;;;;;;;;;4913428;29;20523;-88
2021/10/13 01:54:54;;;;;;;21.55;16.60;;;;;;;;;;4924696;29;20419;-91
2021/10/13 01:57:24;;;;;;;22.10;16.45;;;;;;;;;;4913347;29;20430;-91
2021/10/13 01:59:55;;;;;;;23.65;16.98;;;;;;;;;;4913289;29;20423;-90
2021/10/13 02:02:28;;;;;;;21.45;16.58;;;;;;;;;;4931530;29;20623;-91
2021/10/13 02:04:57;;;;;;;19.80;15.88;;;;;;;;;;4913411;29;20494;-91
2021/10/13 02:07:26;;;;;;;23.23;16.13;;;;;;;;;;4932222;29;20422;-91
2021/10/13 02:09:56;;;;;;;19.73;15.52;;;;;;;;;;4919976;29;20446;-91
2021/10/13 02:12:24;;;;;;;20.75;16.02;;;;;;;;;;4917254;29;20418;-91
2021/10/13 02:14:53;;;;;;;22.02;16.25;;;;;;;;;;4928639;29;20448;-89
2021/10/13 02:17:21;;;;;;;19.83;16.17;;;;;;;;;;4927706;29;20427;-92
2021/10/13 02:19:51;;;;;;;23.10;16.75;;;;;;;;;;4914126;29;20455;-92
2021/10/13 02:22:22;;;;;;;21.27;16.37;;;;;;;;;;4916388;29;20454;-92
2021/10/13 02:24:51;;;;;;;22.27;16.58;;;;;;;;;;4915976;29;20418;-91
2021/10/13 02:27:23;;;;;;;20.75;16.25;;;;;;;;;;4912948;29;20419;-92
2021/10/13 02:29:49;;;;;;;20.80;16.58;;;;;;;;;;4912917;29;20511;-92
2021/10/13 02:32:17;;;;;;;21.15;16.92;;;;;;;;;;4940096;29;20416;-91
2021/10/13 02:34:44;;;;;;;20.27;16.13;;;;;;;;;;4951120;29;20412;-91
2021/10/13 02:37:13;;;;;;;20.92;16.17;;;;;;;;;;4934755;29;20422;-92
2021/10/13 02:39:40;;;;;;;21.90;16.80;;;;;;;;;;4920790;29;20424;-90
2021/10/13 02:42:08;;;;;;;21.25;16.25;;;;;;;;;;4949003;28;20416;-91
2021/10/13 02:44:35;;;;;;;23.75;17.08;;;;;;;;;;4942152;29;20416;-91
2021/10/13 02:47:07;;;;;;;22.07;17.13;;;;;;;;;;4938402;28;20434;-91
2021/10/13 02:49:42;;;;;;;23.35;16.88;;;;;;;;;;4931585;29;20701;-91
2021/10/13 02:52:19;;;;;;;21.45;16.20;;;;;;;;;;4928650;29;20423;-92
2021/10/13 02:54:51;;;;;;;22.83;16.65;;;;;;;;;;4935496;29;20483;-91
2021/10/13 02:57:21;;;;;;;20.73;16.67;;;;;;;;;;4920715;28;20538;-91
2021/10/13 02:59:51;;;;;;;21.17;16.30;;;;;;;;;;4915284;29;20419;-91
2021/10/13 03:02:24;;;;;;;23.15;17.10;;;;;;;;;;4919287;29;20438;-91
2021/10/13 03:04:54;;;;;;;21.30;16.88;;;;;;;;;;4946763;29;20507;-91
2021/10/13 03:07:25;;;;;;;22.23;17.33;;;;;;;;;;4950131;28;20412;-91
2021/10/13 03:09:58;;;;;;;22.30;16.67;;;;;;;;;;4949925;29;20412;-91
2021/10/13 03:12:31;;;;;;;22.13;16.03;;;;;;;;;;4950139;28;20522;-91
2021/10/13 03:14:59;;;;;;;22.02;16.75;;;;;;;;;;4950030;29;20498;-91
2021/10/13 03:17:27;;;;;;;19.85;16.60;;;;;;;;;;4933128;28;20450;-91
2021/10/13 03:19:55;;;;;;;20.48;16.30;;;;;;;;;;4912170;29;20418;-90
2021/10/13 03:22:26;;;;;;;19.88;16.17;;;;;;;;;;4950175;29;20443;-90
2021/10/13 03:24:53;;;;;;;22.75;17.15;;;;;;;;;;4911841;29;20486;-91
2021/10/13 03:27:24;;;;;;;21.95;16.25;;;;;;;;;;4911840;29;20416;-91
2021/10/13 03:29:51;;;;;;;21.80;16.73;;;;;;;;;;4911634;29;20421;-91
2021/10/13 03:32:19;;;;;;;21.05;16.60;;;;;;;;;;4918620;29;20429;-90
2021/10/13 03:34:46;;;;;;;22.08;16.23;;;;;;;;;;4910962;29;20809;-92
2021/10/13 03:37:15;;;;;;;23.52;15.27;;;;;;;;;;4911913;29;20489;-91
2021/10/13 03:39:47;;;;;;;20.90;16.20;;;;;;;;;;4917893;29;20410;-91
2021/10/13 03:42:14;;;;;;;20.67;16.08;;;;;;;;;;4931152;29;20467;-91
2021/10/13 03:44:41;;;;;;;21.00;16.30;;;;;;;;;;4919888;29;20419;-92
2021/10/13 03:47:08;;;;;;;21.58;16.95;;;;;;;;;;4911788;29;20557;-90
2021/10/13 03:49:35;;;;;;;21.47;16.13;;;;;;;;;;4923162;29;20488;-91
2021/10/13 03:52:04;;;;;;;20.63;16.00;;;;;;;;;;4927325;29;20969;-91
2021/10/13 03:54:31;;;;;;;21.98;16.10;;;;;;;;;;4919849;29;20416;-90
2021/10/13 03:56:59;;;;;;;22.00;16.30;;;;;;;;;;4948272;29;20412;-91
2021/10/13 03:59:26;;;;;;;19.73;15.80;;;;;;;;;;4950051;29;20412;-91
2021/10/13 04:01:53;;;;;;;21.48;15.80;;;;;;;;;;4949274;29;20431;-91
2021/10/13 04:04:20;;;;;;;20.10;16.05;;;;;;;;;;4939263;29;20421;-91
2021/10/13 04:06:47;;;;;;;21.15;15.80;;;;;;;;;;4921133;29;20428;-90
2021/10/13 04:09:14;;;;;;;20.50;15.68;;;;;;;;;;4910382;29;20419;-91
2021/10/13 04:11:40;;;;;;;19.35;15.70;;;;;;;;;;4923796;29;20420;-90
2021/10/13 04:14:09;;;;;;;22.60;16.02;;;;;;;;;;4931101;29;20822;-90
2021/10/13 04:16:36;;;;;;;18.33;15.75;;;;;;;;;;4929419;29;20413;-91
2021/10/13 04:19:03;;;;;;;19.00;14.98;;;;;;;;;;4918694;29;20417;-91
2021/10/13 04:21:30;;;;;;;21.70;16.70;;;;;;;;;;4922441;29;20419;-91
2021/10/13 04:23:57;;;;;;;22.38;17.38;;;;;;;;;;4914624;29;20423;-91
2021/10/13 04:26:24;;;;;;;22.70;17.27;;;;;;;;;;4914523;29;20459;-91
2021/10/13 04:28:51;;;;;;;23.40;17.77;;;;;;;;;;4914369;29;20420;-91
2021/10/13 04:31:20;;;;;;;23.73;17.30;;;;;;;;;;4916931;29;20436;-91
2021/10/13 04:33:46;;;;;;;22.63;17.48;;;;;;;;;;4919574;29;20417;-90
2021/10/13 04:36:13;;;;;;;23.17;16.88;;;;;;;;;;4923418;29;20476;-91
2021/10/13 04:38:40;;;;;;;23.85;17.88;;;;;;;;;;4917577;29;20419;-92
2021/10/13 04:41:07;;;;;;;24.40;17.65;;;;;;;;;;4928733;29;20415;-91
2021/10/13 04:43:34;;;;;;;24.20;18.73;;;;;;;;;;4927524;29;20423;-91
2021/10/13 04:46:01;;;;;;;23.88;17.33;;;;;;;;;;4919027;29;20445;-91
2021/10/13 04:48:29;;;;;;;24.30;18.02;;;;;;;;;;4922543;29;20431;-91
2021/10/13 04:50:56;;;;;;;24.20;16.90;;;;;;;;;;4925143;29;20462;-90
2021/10/13 04:53:24;;;;;;;21.30;17.10;;;;;;;;;;4926025;29;20690;-90
2021/10/13 04:55:50;;;;;;;23.13;17.27;;;;;;;;;;4922013;29;20912;-91
2021/10/13 04:58:37;;;;;;;23.75;17.05;;;;;;;;;;4920978;29;20770;-91
2021/10/13 05:01:04;;;;;;;22.02;16.90;;;;;;;;;;4919529;29;20457;-90
2021/10/13 05:04:01;;;;;;;23.77;17.52;;;;;;;;;;4920278;29;20751;-91
2021/10/13 05:06:29;;;;;;;26.23;18.75;;;;;;;;;;4917441;29;20497;-91
2021/10/13 05:08:56;;;;;;;25.08;17.85;;;;;;;;;;4916264;29;20426;-90
2021/10/13 05:11:23;;;;;;;24.90;17.70;;;;;;;;;;4922941;29;20655;-91
2021/10/13 05:13:50;;;;;;;23.02;17.52;;;;;;;;;;4922699;29;20525;-90
2021/10/13 05:16:17;;;;;;;25.13;17.77;;;;;;;;;;4916004;29;20769;-91
2021/10/13 05:18:58;;;;;;;27.30;17.60;;;;;;;;;;4917759;29;20496;-91
2021/10/13 05:21:24;;;;;;;23.73;18.15;;;;;;;;;;4919202;29;20432;-90
2021/10/13 05:23:51;;;;;;;24.40;17.83;;;;;;;;;;4919839;29;20406;-77
2021/10/13 05:26:18;;;;;;;24.55;18.15;;;;;;;;;;4922153;29;20447;-91
2021/10/13 05:28:45;;;;;;;23.75;18.38;;;;;;;;;;4922633;29;20470;-90
2021/10/13 05:31:12;;;;;;;24.40;18.52;;;;;;;;;;4921269;29;20498;-91
2021/10/13 05:33:43;;;;;;;24.63;18.05;;;;;;;;;;4920430;29;20509;-90
2021/10/13 05:36:12;;;;;;;24.50;17.42;;;;;;;;;;4916565;29;20428;-90
2021/10/13 05:38:39;;;;;;;26.10;18.53;;;;;;;;;;4923624;29;20481;-90
2021/10/13 05:41:06;;;;;;;26.67;17.52;;;;;;;;;;4918977;29;20497;-91
2021/10/13 05:43:34;;;;;;;24.75;17.52;;;;;;;;;;4905993;29;20410;-91
2021/10/13 05:46:01;;;;;;;25.33;18.45;;;;;;;;;;4919810;29;20434;-89
2021/10/13 05:48:28;;;;;;;25.67;18.55;;;;;;;;;;4929948;29;20809;-91
2021/10/13 05:50:55;;;;;;;24.48;18.08;;;;;;;;;;4927680;28;20415;-90
2021/10/13 05:53:23;;;;;;;27.13;18.15;;;;;;;;;;4938488;29;20427;-91
2021/10/13 05:55:50;;;;;;;25.10;18.38;;;;;;;;;;4917933;29;20455;-90
2021/10/13 05:58:20;;;;;;;23.35;18.02;;;;;;;;;;4923073;29;20411;-90
2021/10/13 06:00:47;;;;;;;29.17;19.23;;;;;;;;;;4921427;29;20949;-89
2021/10/13 06:03:14;;;;;;;26.88;18.85;;;;;;;;;;4922552;29;20440;-91
2021/10/13 06:05:41;;;;;;;25.85;18.60;;;;;;;;;;4919500;29;20419;-90
2021/10/13 06:08:09;;;;;;;26.63;18.70;;;;;;;;;;4920720;29;20415;-91
2021/10/13 06:10:37;;;;;;;26.45;18.58;;;;;;;;;;4927684;29;20504;-90
2021/10/13 06:13:04;;;;;;;26.17;18.85;;;;;;;;;;4921553;29;20991;-90
2021/10/13 06:15:34;;;;;;;29.83;18.77;;;;;;;;;;4923895;29;20896;-91
2021/10/13 06:18:02;;;;;;;27.40;18.95;;;;;;;;;;4910183;29;20961;-90
2021/10/13 06:20:29;;;;;;;26.97;19.30;;;;;;;;;;4919570;29;20713;-91
2021/10/13 06:22:56;;;;;;;26.42;19.17;;;;;;;;;;4921618;29;20494;-90
2021/10/13 06:25:23;;;;;;;27.15;18.45;;;;;;;;;;4920972;29;20414;-91
2021/10/13 06:27:51;;;;;;;26.63;19.00;;;;;;;;;;4913131;29;20407;-90
2021/10/13 06:30:18;;;;;;;27.03;19.43;;;;;;;;;;4921300;29;20416;-90
2021/10/13 06:32:45;;;;;;;28.15;19.23;;;;;;;;;;4918441;29;20466;-89
2021/10/13 06:35:13;;;;;;;26.10;18.97;;;;;;;;;;4925838;29;20492;-89
2021/10/13 06:37:40;;;;;;;32.70;19.20;;;;;;;;;;4926260;29;20425;-90
2021/10/13 06:40:08;;;;;;;28.70;18.30;;;;;;;;;;4927887;29;20409;-89
2021/10/13 06:42:34;;;;;;;27.00;18.38;;;;;;;;;;4918030;29;20451;-91
2021/10/13 06:45:04;;;;;;;24.67;17.85;;;;;;;;;;4922322;29;20440;-91
2021/10/13 06:47:31;;;;;;;25.80;17.38;;;;;;;;;;4922677;29;20470;-89
2021/10/13 06:49:58;;;;;;;24.08;17.80;;;;;;;;;;4929055;29;20483;-90
2021/10/13 06:52:25;;;;;;;29.35;17.73;;;;;;;;;;4923857;29;20422;-90
2021/10/13 06:54:52;;;;;;;25.17;17.13;;;;;;;;;;4923834;29;20412;-90
2021/10/13 06:57:19;;;;;;;26.98;16.55;;;;;;;;;;4922256;29;20414;-90
2021/10/13 06:59:45;;;;;;;27.52;17.88;;;;;;;;;;4924164;29;20418;-91
2021/10/13 07:02:14;;;;;;;23.35;16.05;;;;;;;;;;4921660;29;20421;-90
2021/10/13 07:04:41;;;;;;;22.92;16.02;;;;;;;;;;4926082;29;20429;-89
2021/10/13 07:07:08;;;;;;;21.95;15.82;;;;;;;;;;4923467;29;20433;-90
2021/10/13 07:09:36;;;;;;;22.13;16.13;;;;;;;;;;4928031;29;20815;-91
2021/10/13 07:12:04;;;;;;;18.63;14.88;;;;;;;;;;4921655;29;20411;-92
2021/10/13 07:14:31;;;;;;;21.63;15.27;;;;;;;;;;4919524;29;20419;-90
2021/10/13 07:16:58;;;;;;;23.73;16.40;;;;;;;;;;4924016;29;20424;-91
2021/10/13 07:19:26;;;;;;;22.35;15.40;;;;;;;;;;4923010;29;20417;-91
2021/10/13 07:21:53;;;;;;;21.48;15.15;;;;;;;;;;4924944;29;20419;-91
2021/10/13 07:24:20;;;;;;;20.15;14.40;;;;;;;;;;4917958;29;20415;-91
2021/10/13 07:26:47;;;;;;;20.00;13.70;;;;;;;;;;4915704;29;20443;-90
2021/10/13 07:29:14;;;;;;;16.58;12.90;;;;;;;;;;4916795;29;20722;-90
2021/10/13 07:31:41;;;;;;;18.65;13.20;;;;;;;;;;4915541;29;20423;-91
2021/10/13 07:34:08;;;;;;;20.65;13.98;;;;;;;;;;4915100;29;21098;-90
2021/10/13 07:36:38;;;;;;;19.30;13.45;;;;;;;;;;4914371;29;20415;-92
2021/10/13 07:39:05;;;;;;;17.65;12.65;;;;;;;;;;4914032;29;20410;-92
2021/10/13 07:41:32;;;;;;;15.85;12.20;;;;;;;;;;4919443;29;20462;-92
2021/10/13 07:43:59;;;;;;;18.47;12.90;;;;;;;;;;4916606;29;20508;-90
2021/10/13 07:46:26;;;;;;;18.13;12.30;;;;;;;;;;4920374;29;20447;-90
2021/10/13 07:48:53;;;;;;;16.35;11.63;;;;;;;;;;4926043;29;20977;-91
2021/10/13 07:51:20;;;;;;;15.38;11.90;;;;;;;;;;4916944;29;20415;-90
2021/10/13 07:53:49;;;;;;;15.27;11.52;;;;;;;;;;4920795;29;20422;-90
2021/10/13 07:56:15;;;;;;;14.40;10.90;;;;;;;;;;4924172;29;20426;-91
2021/10/13 07:58:43;;;;;;;16.98;11.23;;;;;;;;;;4918210;29;20406;-90
2021/10/13 08:01:10;;;;;;;12.87;9.90;;;;;;;;;;4918655;29;20498;-91
2021/10/13 08:03:36;;;;;;;13.23;9.57;;;;;;;;;;4929278;29;20449;-92
2021/10/13 08:06:03;;;;;;;13.57;10.25;;;;;;;;;;4923395;29;20428;-90
2021/10/13 08:08:30;;;;;;;11.55;9.65;;;;;;;;;;4919211;29;20942;-92
2021/10/13 08:10:59;;;;;;;12.73;9.88;;;;;;;;;;4928341;29;20425;-91
2021/10/13 08:13:26;;;;;;;14.93;9.73;;;;;;;;;;4924155;29;20432;-89
2021/10/13 08:15:53;;;;;;;12.32;9.52;;;;;;;;;;4917178;29;20474;-91
2021/10/13 08:18:20;;;;;;;14.73;9.95;;;;;;;;;;4917394;29;20503;-92
2021/10/13 08:20:47;;;;;;;13.40;9.90;;;;;;;;;;4920572;29;20408;-91
2021/10/13 08:23:13;;;;;;;12.20;9.77;;;;;;;;;;4923104;29;20520;-91
2021/10/13 08:25:40;;;;;;;13.63;9.60;;;;;;;;;;4919667;29;20496;-90
2021/10/13 08:28:09;;;;;;;14.70;9.02;;;;;;;;;;4920703;29;20425;-90
2021/10/13 08:30:36;;;;;;;11.88;8.43;;;;;;;;;;4919001;29;20435;-91
2021/10/13 08:33:03;;;;;;;12.65;8.80;;;;;;;;;;4919284;29;20415;-90
2021/10/13 08:35:30;;;;;;;11.57;8.73;;;;;;;;;;4922487;29;20410;-92
2021/10/13 08:37:57;;;;;;;12.65;8.80;;;;;;;;;;4918434;29;20894;-90
2021/10/13 08:40:24;;;;;;;13.63;9.52;;;;;;;;;;4922631;29;20419;-91
2021/10/13 08:42:53;;;;;;;11.57;9.02;;;;;;;;;;4921212;29;20819;-91
2021/10/13 08:45:22;;;;;;;9.93;8.45;;;;;;;;;;4919383;29;20455;-91
2021/10/13 08:47:49;;;;;;;15.15;9.65;;;;;;;;;;4920825;29;20439;-91
2021/10/13 08:50:16;;;;;;;12.60;8.95;;;;;;;;;;4926703;28;20461;-90
2021/10/13 08:52:43;;;;;;;12.55;9.98;;;;;;;;;;4925617;29;20410;-90
2021/10/13 08:55:12;;;;;;;14.60;9.55;;;;;;;;;;4922170;29;21017;-92
2021/10/13 08:57:40;;;;;;;15.25;9.80;;;;;;;;;;4920926;29;20416;-91
2021/10/13 09:00:08;;;;;;;12.88;9.75;;;;;;;;;;4925152;29;20418;-89
2021/10/13 09:02:41;;;;;;;16.65;9.48;;;;;;;;;;4926931;29;20426;-91
2021/10/13 09:05:11;;;;;;;12.67;8.80;;;;;;;;;;4929817;29;20782;-93
2021/10/13 09:07:39;;;;;;;13.13;9.10;;;;;;;;;;4925153;29;20436;-89
2021/10/13 09:10:07;;;;;;;14.00;9.07;;;;;;;;;;4923147;29;20420;-90
2021/10/13 09:12:36;;;;;;;14.30;9.05;;;;;;;;;;4917655;29;20400;-91
2021/10/13 09:15:09;;;;;;;14.55;9.43;;;;;;;;;;4920798;29;20432;-90
2021/10/13 09:17:55;;;;;;;14.45;8.90;;;;;;;;;;4921721;29;20412;-91
2021/10/13 09:20:24;;;;;;;13.63;9.75;;;;;;;;;;4914799;29;20415;-92
2021/10/13 09:22:59;;;;;;;12.45;9.13;;;;;;;;;;4922720;29;20437;-90
2021/10/13 09:25:26;;;;;;;19.17;9.88;;;;;;;;;;4923059;29;20415;-90
2021/10/13 09:27:53;;;;;;;14.40;9.60;;;;;;;;;;4918771;29;20437;-92
2021/10/13 09:30:27;;;;;;;16.63;9.93;;;;;;;;;;4926299;29;20425;-90
2021/10/13 09:32:55;;;;;;;13.40;9.60;;;;;;;;;;4919510;29;20953;-92
2021/10/13 09:35:29;;;;;;;15.32;10.10;;;;;;;;;;4933067;28;20430;-91
2021/10/13 09:37:58;;;;;;;16.67;10.55;;;;;;;;;;4927252;29;20739;-90
2021/10/13 09:40:27;;;;;;;17.17;10.90;;;;;;;;;;4917515;29;20427;-92
2021/10/13 09:42:58;;;;;;;18.33;12.67;;;;;;;;;;4914478;29;20510;-91
2021/10/13 09:45:25;;;;;;;17.25;11.27;;;;;;;;;;4913019;29;20800;-90
2021/10/13 09:48:00;;;;;;;17.25;11.38;;;;;;;;;;4923894;29;20476;-91
2021/10/13 09:50:39;;;;;;;15.57;11.40;;;;;;;;;;4932156;29;20555;-90
2021/10/13 09:53:17;;;;;;;16.88;12.43;;;;;;;;;;4931968;29;20446;-93
2021/10/13 09:55:44;;;;;;;16.35;12.13;;;;;;;;;;4914318;29;20415;-92
2021/10/13 09:58:22;;;;;;;18.23;12.73;;;;;;;;;;4923962;29;20414;-92
2021/10/13 10:00:49;;;;;;;16.85;13.00;;;;;;;;;;4927165;29;20453;-92
2021/10/13 10:03:19;;;;;;;16.92;12.30;;;;;;;;;;4927275;29;20422;-91
2021/10/13 10:05:46;;;;;;;16.27;12.55;;;;;;;;;;4918237;29;20514;-92
2021/10/13 10:08:14;;;;;;;16.40;12.88;;;;;;;;;;4920142;29;20775;-90
2021/10/13 10:11:03;;;;;;;17.40;12.48;;;;;;;;;;4917596;29;20475;-90
2021/10/13 10:13:37;;;;;;;16.67;12.23;;;;;;;;;;4921011;29;20524;-91
2021/10/13 10:16:04;;;;;;;17.02;12.52;;;;;;;;;;4913676;29;20415;-90
2021/10/13 10:18:35;;;;;;;17.40;12.55;;;;;;;;;;4913693;29;20817;-92
2021/10/13 10:21:21;;;;;;;15.93;12.57;;;;;;;;;;4916237;29;20435;-91
2021/10/13 10:23:49;;;;;;;17.42;12.65;;;;;;;;;;4920860;29;20495;-92
2021/10/13 10:26:32;;;;;;;16.48;12.23;;;;;;;;;;4922310;29;20415;-90
2021/10/13 10:29:01;;;;;;;17.50;12.80;;;;;;;;;;4919303;29;20427;-91
2021/10/13 10:31:37;;;;;;;18.90;12.77;;;;;;;;;;4927913;29;20512;-90
2021/10/13 10:34:17;;;;;;;16.23;12.60;;;;;;;;;;4937670;29;20420;-92
2021/10/13 10:37:14;;;;;;;17.25;13.07;;;;;;;;;;4935678;29;20459;-92
2021/10/13 10:40:04;;;;;;;18.40;13.17;;;;;;;;;;4913389;29;20450;-90
2021/10/13 10:43:10;;;;;;;18.65;12.90;;;;;;;;;;4918453;29;20592;-91
2021/10/13 10:45:40;;;;;;;15.55;11.68;;;;;;;;;;4914623;29;20407;-92
2021/10/13 10:48:15;;;;;;;17.33;11.80;;;;;;;;;;4924365;29;20453;-92
2021/10/13 10:51:08;;;;;;;16.80;12.20;;;;;;;;;;4927665;29;20425;-92
2021/10/13 10:53:38;;;;;;;15.65;11.50;;;;;;;;;;4923945;29;20418;-91
2021/10/13 10:56:31;;;;;;;15.52;11.70;;;;;;;;;;4932049;29;20460;-92
2021/10/13 10:59:11;;;;;;;15.57;11.55;;;;;;;;;;4905064;29;20479;-91
2021/10/13 11:01:40;;;;;;;15.02;11.32;;;;;;;;;;4913094;29;20811;-91
2021/10/13 11:04:08;;;;;;;17.15;12.40;;;;;;;;;;4912921;29;20419;-91
2021/10/13 11:06:39;;;;;;;14.05;11.30;;;;;;;;;;4919044;29;20483;-91
2021/10/13 11:09:08;;;;;;;16.02;11.15;;;;;;;;;;4912714;29;20426;-90
2021/10/13 11:11:39;;;;;;;17.10;11.17;;;;;;;;;;4964039;23;20405;-87
2021/10/13 11:14:11;;;;;;;15.33;10.50;;;;;;;;;;4918873;29;20941;-86
2021/10/13 11:16:46;;;;;;;14.32;10.80;;;;;;;;;;4924689;29;20414;-87
2021/10/13 11:19:19;;;;;;;13.02;10.27;;;;;;;;;;4919715;29;20414;-87
2021/10/13 11:21:56;;;;;;;14.75;11.07;;;;;;;;;;4921841;29;20426;-85
2021/10/13 11:24:23;;;;;;;14.15;10.80;;;;;;;;;;4923113;29;20414;-86
2021/10/13 11:26:49;;;;;;;13.95;10.32;;;;;;;;;;4918222;29;20433;-87
2021/10/13 11:29:19;;;;;;;13.32;10.30;;;;;;;;;;4919886;29;20425;-87
2021/10/13 11:31:46;;;;;;;15.35;10.02;;;;;;;;;;4921132;29;20433;-87
2021/10/13 11:34:17;;;;;;;16.13;11.03;;;;;;;;;;4915628;29;20412;-87
2021/10/13 11:37:01;;;;;;;16.00;10.47;;;;;;;;;;4922231;29;20426;-86
2021/10/13 11:39:30;;;;;;;11.60;8.90;;;;;;;;;;4921653;29;21001;-86
2021/10/13 11:41:59;;;;;;;11.23;8.23;;;;;;;;;;4931825;29;20730;-86
2021/10/13 11:44:27;;;;;;;11.32;9.00;;;;;;;;;;4936621;29;20413;-86
2021/10/13 11:46:56;;;;;;;9.02;7.82;;;;;;;;;;4931292;29;20421;-85
2021/10/13 11:49:28;;;;;;;9.30;7.28;;;;;;;;;;4910947;29;21681;-87
2021/10/13 11:52:14;;;;;;;10.67;7.93;;;;;;;;;;4914170;29;20465;-87
2021/10/13 11:54:44;;;;;;;12.57;7.75;;;;;;;;;;4912921;29;20773;-87
2021/10/13 11:57:16;;;;;;;8.90;6.63;;;;;;;;;;4917233;29;20941;-86
2021/10/13 11:59:44;;;;;;;7.93;6.10;;;;;;;;;;4912030;29;20408;-87
2021/10/13 12:02:16;;;;;;;8.18;5.43;;;;;;;;;;4919288;29;20422;-87
2021/10/13 12:04:54;;;;;;;6.43;5.05;;;;;;;;;;4917764;29;20420;-87
2021/10/13 12:07:26;;;;;;;7.20;5.15;;;;;;;;;;4919020;29;20426;-87
2021/10/13 12:10:01;;;;;;;8.35;5.72;;;;;;;;;;4917532;29;21804;-87
2021/10/13 12:12:29;;;;;;;7.70;5.65;;;;;;;;;;4916827;29;20418;-86
2021/10/13 12:14:57;;;;;;;7.47;4.65;;;;;;;;;;4917891;29;20415;-88
2021/10/13 12:17:32;;;;;;;5.88;4.75;;;;;;;;;;4919828;29;20461;-88
2021/10/13 12:20:02;;;;;;;5.47;4.78;;;;;;;;;;4917038;29;20438;-87
2021/10/13 12:22:46;;;;;;;8.85;5.20;;;;;;;;;;4921682;29;20419;-87
2021/10/13 12:25:23;;;;;;;6.28;4.57;;;;;;;;;;4918509;29;20423;-87
2021/10/13 12:27:50;;;;;;;6.47;4.90;;;;;;;;;;4921971;29;20904;-87
2021/10/13 12:30:29;;;;;;;8.10;5.07;;;;;;;;;;4919853;29;20519;-87
2021/10/13 12:33:05;;;;;;;7.70;5.25;;;;;;;;;;4917388;29;20425;-86
2021/10/13 12:35:32;;;;;;;7.13;4.87;;;;;;;;;;4921782;29;20427;-86
2021/10/13 12:38:01;;;;;;;7.72;5.10;;;;;;;;;;4921402;29;20435;-87
2021/10/13 12:40:27;;;;;;;7.53;5.25;;;;;;;;;;4924236;29;20411;-88
2021/10/13 12:42:55;;;;;;;6.88;5.20;;;;;;;;;;4923643;29;20433;-87
2021/10/13 12:45:25;;;;;;;7.40;5.05;;;;;;;;;;4927173;29;20496;-85
2021/10/13 12:48:13;;;;;;;9.35;5.68;;;;;;;;;;4928629;29;20431;-87
2021/10/13 12:50:40;;;;;;;7.60;5.40;;;;;;;;;;4924880;29;20422;-88
2021/10/13 12:53:09;;;;;;;8.05;6.00;;;;;;;;;;4924274;29;20425;-87
2021/10/13 12:55:37;;;;;;;7.30;5.97;;;;;;;;;;4923183;29;20436;-87
2021/10/13 12:58:04;;;;;;;9.38;6.50;;;;;;;;;;4923406;29;20420;-87
2021/10/13 13:00:30;;;;;;;8.60;6.65;;;;;;;;;;4927359;29;20410;-87
2021/10/13 13:02:57;;;;;;;10.25;6.43;;;;;;;;;;4922695;29;20922;-88
2021/10/13 13:05:24;;;;;;;10.00;7.20;;;;;;;;;;4924402;29;20410;-86
2021/10/13 13:07:51;;;;;;;8.50;6.38;;;;;;;;;;4925904;29;20423;-87
2021/10/13 13:10:19;;;;;;;9.25;6.00;;;;;;;;;;4929463;29;20437;-86
2021/10/13 13:12:46;;;;;;;10.33;6.50;;;;;;;;;;4925771;29;20408;-86
2021/10/13 13:15:14;;;;;;;9.63;7.10;;;;;;;;;;4924715;29;20481;-86
2021/10/13 13:17:41;;;;;;;9.40;7.22;;;;;;;;;;4924148;29;20417;-86
2021/10/13 13:20:09;;;;;;;9.68;6.88;;;;;;;;;;4923275;29;20411;-86
2021/10/13 13:22:36;;;;;;;8.63;7.00;;;;;;;;;;4923073;29;20443;-86
2021/10/13 13:25:04;;;;;;;10.18;7.80;;;;;;;;;;4933717;29;20405;-87
2021/10/13 13:27:33;;;;;;;11.75;8.35;;;;;;;;;;4931817;29;20411;-86
2021/10/13 13:30:00;;;;;;;11.18;9.07;;;;;;;;;;4927359;29;20410;-87
2021/10/13 13:32:27;;;;;;;13.00;9.88;;;;;;;;;;4926619;29;20510;-86
2021/10/13 13:34:55;;;;;;;13.25;9.43;;;;;;;;;;4926987;29;20422;-86
2021/10/13 13:37:22;;;;;;;11.73;9.38;;;;;;;;;;4925241;29;20786;-86
2021/10/13 13:39:49;;;;;;;14.02;9.38;;;;;;;;;;4927464;29;20415;-86
2021/10/13 13:42:16;;;;;;;12.50;9.10;;;;;;;;;;4925252;29;20506;-85
2021/10/13 13:44:45;;;;;;;15.32;8.75;;;;;;;;;;4927355;29;20413;-84
2021/10/13 13:47:12;;;;;;;11.95;9.10;;;;;;;;;;4922928;29;20421;-84
2021/10/13 13:49:39;;;;;;;12.73;9.10;;;;;;;;;;4922419;29;20435;-85
2021/10/13 13:52:06;;;;;;;13.98;9.13;;;;;;;;;;4922127;29;20484;-86
2021/10/13 13:54:33;;;;;;;13.85;9.50;;;;;;;;;;4927994;29;20418;-86
2021/10/13 13:57:00;;;;;;;14.55;8.98;;;;;;;;;;4924341;29;20425;-86
2021/10/13 13:59:26;;;;;;;12.23;8.85;;;;;;;;;;4919889;29;20412;-86
2021/10/13 14:01:55;;;;;;;13.00;9.27;;;;;;;;;;4924436;29;20428;-87
2021/10/13 14:04:21;;;;;;;14.50;9.70;;;;;;;;;;4923275;29;20410;-87
2021/10/13 14:06:48;;;;;;;11.82;9.27;;;;;;;;;;4922767;29;20422;-87
2021/10/13 14:09:15;;;;;;;11.18;9.05;;;;;;;;;;4923671;29;20443;-87
2021/10/13 14:11:42;;;;;;;12.80;9.15;;;;;;;;;;4923038;29;20471;-86
2021/10/13 14:14:09;;;;;;;10.27;8.20;;;;;;;;;;4926195;29;20471;-86
2021/10/13 14:16:35;;;;;;;10.80;8.70;;;;;;;;;;4921692;29;21188;-86
2021/10/13 14:19:04;;;;;;;12.32;8.20;;;;;;;;;;4920106;29;20415;-86
2021/10/13 14:21:31;;;;;;;10.98;8.07;;;;;;;;;;4924342;29;21234;-87
2021/10/13 14:23:58;;;;;;;14.48;8.77;;;;;;;;;;4922762;29;20437;-88
2021/10/13 14:26:25;;;;;;;11.48;8.45;;;;;;;;;;4925666;29;20427;-87
2021/10/13 14:28:53;;;;;;;11.90;9.50;;;;;;;;;;4923589;29;20431;-86
2021/10/13 14:31:20;;;;;;;12.17;9.37;;;;;;;;;;4923690;29;20418;-86
2021/10/13 14:33:47;;;;;;;12.02;8.63;;;;;;;;;;4926567;29;20425;-86
2021/10/13 14:36:16;;;;;;;12.02;8.40;;;;;;;;;;4926572;29;20423;-86